Time;durP1;ratioP1;P1;durP2;ratioP2;P2;SDS_P1;SDS_P2;PMS_P1;PMS_P2;Temp;Humidity;BMP_temperature;BMP_pressure;BME280_temperature;BME280_humidity;BME280_pressure;Samples;Min_cycle;Max_cycle;Signal;HPM_P1;HPM_P2
2022/01/14 00:01:38;;;;;;;;;;;;;;;;;;5068394;28;19925;-96
2022/01/14 00:04:05;;;;;;;;;;;;;;;;;;5055934;28;19925;-96
2022/01/14 00:06:31;;;;;;;;;;;;;;;;;;5046762;28;19948;-96
2022/01/14 00:09:05;;;;;;;;;;;;;;;;;;5056472;28;19947;-96
2022/01/14 00:11:32;;;;;;;;;;;;;;;;;;5065431;28;20016;-96
2022/01/14 00:14:08;;;;;;;;;;;;;;;;;;5055083;28;20364;-96
2022/01/14 00:16:35;;;;;;;;;;;;;;;;;;5066457;28;19931;-95
2022/01/14 00:19:01;;;;;;;;;;;;;;;;;;5054642;28;19925;-94
2022/01/14 00:21:27;;;;;;;;;;;;;;;;;;5046257;28;19925;-93
2022/01/14 00:24:05;;;;;;;;;;;;;;;;;;5046263;28;19925;-93
2022/01/14 00:32:08;;;;;;;;;;;;;;;;;;5046534;28;19980;-94
2022/01/14 00:34:34;;;;;;;;;;;;;;;;;;5060712;28;19936;-94
2022/01/14 00:37:01;;;;;;;;;;;;;;;;;;5066149;28;19987;-93
2022/01/14 00:39:27;;;;;;;;;;;;;;;;;;5065452;28;19924;-94
2022/01/14 00:41:53;;;;;;;;;;;;;;;;;;5065677;28;19955;-93
2022/01/14 00:44:20;;;;;;;;;;;;;;;;;;5052624;28;19929;-92
2022/01/14 00:46:46;;;;;;;;;;;;;;;;;;5045188;28;19964;-94
2022/01/14 00:49:12;;;;;;;;;;;;;;;;;;5056675;28;19971;-94
2022/01/14 00:51:39;;;;;;;;;;;;;;;;;;5066565;28;19925;-95
2022/01/14 00:54:05;;;;;;;;;;;;;;;;;;5065805;28;19925;-95
2022/01/14 00:56:34;;;;;;;;;;;;;;;;;;5064237;28;19925;-94
2022/01/14 00:59:14;;;;;;;;;;;;;;;;;;5055906;28;20297;-94
2022/01/14 01:01:42;;;;;;;;;;;;;;;;;;5045249;28;19932;-93
2022/01/14 01:04:08;;;;;;;;;;;;;;;;;;5055100;28;19931;-94
2022/01/14 01:06:35;;;;;;;;;;;;;;;;;;5046677;28;19997;-95
2022/01/14 01:09:01;;;;;;;;;;;;;;;;;;5045724;28;19987;-95
2022/01/14 01:11:32;;;;;;;;;;;;;;;;;;5061803;28;19925;-95
2022/01/14 01:14:05;;;;;;;;;;;;;;;;;;5065888;28;19925;-95
2022/01/14 01:16:31;;;;;;;;;;;;;;;;;;5065870;28;19932;-94
2022/01/14 01:18:57;;;;;;;;;;;;;;;;;;5058250;28;19925;-93
2022/01/14 01:21:23;;;;;;;;;;;;;;;;;;5042512;28;19933;-94
2022/01/14 01:23:50;;;;;;;;;;;;;;;;;;5049632;28;19932;-94
2022/01/14 01:26:17;;;;;;;;;;;;;;;;;;5064950;28;20303;-93
2022/01/14 01:28:58;;;;;;;;;;;;;;;;;;5059987;28;19937;-92
2022/01/14 01:31:37;;;;;;;;;;;;;;;;;;5043154;28;19929;-93
2022/01/14 01:34:04;;;;;;;;;;;;;;;;;;5049928;28;19929;-95
2022/01/14 01:36:30;;;;;;;;;;;;;;;;;;5064711;28;19982;-95
2022/01/14 01:38:57;;;;;;;;;;;;;;;;;;5057079;28;19925;-94
2022/01/14 01:41:23;;;;;;;;;;;;;;;;;;5043621;28;19925;-93
2022/01/14 01:43:51;;;;;;;;;;;;;;;;;;5048269;28;19950;-94
2022/01/14 01:46:19;;;;;;;;;;;;;;;;;;5046026;28;19980;-94
2022/01/14 01:48:45;;;;;;;;;;;;;;;;;;5049833;28;19924;-93
2022/01/14 01:51:12;;;;;;;;;;;;;;;;;;5063814;28;19932;-94
2022/01/14 01:53:38;;;;;;;;;;;;;;;;;;5063535;28;19925;-93
2022/01/14 01:56:04;;;;;;;;;;;;;;;;;;5063953;28;19929;-95
2022/01/14 01:58:31;;;;;;;;;;;;;;;;;;5064033;28;19925;-94
2022/01/14 02:00:57;;;;;;;;;;;;;;;;;;5062586;28;19925;-95
2022/01/14 02:03:23;;;;;;;;;;;;;;;;;;5063305;28;20368;-95
2022/01/14 02:05:50;;;;;;;;;;;;;;;;;;5044279;28;19979;-94
2022/01/14 02:08:16;;;;;;;;;;;;;;;;;;5044292;28;19932;-95
2022/01/14 02:10:42;;;;;;;;;;;;;;;;;;5063457;28;19925;-94
2022/01/14 02:13:10;;;;;;;;;;;;;;;;;;5065067;28;19924;-95
2022/01/14 02:15:47;;;;;;;;;;;;;;;;;;5063881;28;19924;-94
2022/01/14 02:23:53;;;;;;;;;;;;;;;;;;5043646;28;19919;-95
2022/01/14 02:26:19;;;;;;;;;;;;;;;;;;5043022;28;19929;-93
2022/01/14 02:28:45;;;;;;;;;;;;;;;;;;5051445;28;19925;-95
2022/01/14 02:31:11;;;;;;;;;;;;;;;;;;5067500;28;19931;-95
2022/01/14 02:33:38;;;;;;;;;;;;;;;;;;5065179;28;19925;-95
2022/01/14 02:36:04;;;;;;;;;;;;;;;;;;5045163;28;19925;-93
2022/01/14 02:38:31;;;;;;;;;;;;;;;;;;5044660;28;19932;-95
2022/01/14 02:40:57;;;;;;;;;;;;;;;;;;5043066;28;19932;-96
2022/01/14 02:43:25;;;;;;;;;;;;;;;;;;5055264;28;19979;-96
2022/01/14 02:45:53;;;;;;;;;;;;;;;;;;5052356;28;19984;-96
2022/01/14 02:48:19;;;;;;;;;;;;;;;;;;5049040;28;19929;-96
2022/01/14 02:50:55;;;;;;;;;;;;;;;;;;5062008;28;19933;-96
2022/01/14 02:53:28;;;;;;;;;;;;;;;;;;5068239;28;19948;-96
2022/01/14 02:55:54;;;;;;;;;;;;;;;;;;5069130;28;19959;-96
2022/01/14 03:03:45;;;;;;;;;;;;;;;;;;5073263;28;19956;-96
2022/01/14 03:06:11;;;;;;;;;;;;;;;;;;5228770;23;19926;-96
2022/01/14 03:08:38;;;;;;;;;;;;;;;;;;5013681;28;19926;-96
2022/01/14 03:11:04;;;;;;;;;;;;;;;;;;5008913;28;19932;-96
2022/01/14 03:13:31;;;;;;;;;;;;;;;;;;5007442;28;19925;-96
2022/01/14 03:15:57;;;;;;;;;;;;;;;;;;5010051;28;19921;-96
2022/01/14 03:18:33;;;;;;;;;;;;;;;;;;5012765;28;19932;-96
2022/01/14 03:21:09;;;;;;;;;;;;;;;;;;5015004;28;19952;-96
2022/01/14 03:23:42;;;;;;;;;;;;;;;;;;5015799;28;19925;-96
2022/01/14 03:26:16;;;;;;;;;;;;;;;;;;5017245;28;19926;-96
2022/01/14 03:47:02;;;;;;;;;;;;;;;;;;5751895;23;19910;-96
2022/01/14 03:49:29;;;;;;;;;;;;;;;;;;5021410;28;19969;-96
2022/01/14 03:51:55;;;;;;;;;;;;;;;;;;5022127;28;19933;-96
2022/01/14 04:02:19;;;;;;;;;;;;;;;;;;5553262;23;19941;-96
2022/01/14 04:07:21;;;;;;;;;;;;;;;;;;5071945;23;19993;-96
2022/01/14 04:09:48;;;;;;;;;;;;;;;;;;5040581;28;19937;-96
2022/01/14 04:12:19;;;;;;;;;;;;;;;;;;5192532;22;19929;-96
2022/01/14 04:17:42;;;;;;;;;;;;;;;;;;6079211;23;20708;-96
2022/01/14 07:51:58;;;;;;;;;;;;;;;;;;4986344;28;19937;-95
2022/01/14 07:54:24;;;;;;;;;;;;;;;;;;4981722;28;20330;-95
2022/01/14 07:57:02;;;;;;;;;;;;;;;;;;4989114;28;19926;-96
2022/01/14 08:02:09;;;;;;;;;;;;;;;;;;4986690;28;20490;-95
2022/01/14 08:04:37;;;;;;;;;;;;;;;;;;4987057;28;19938;-96
2022/01/14 08:07:09;;;;;;;;;;;;;;;;;;4986542;28;19930;-96
2022/01/14 08:09:36;;;;;;;;;;;;;;;;;;4978023;28;20344;-96
2022/01/14 08:12:12;;;;;;;;;;;;;;;;;;4976369;28;19927;-96
2022/01/14 08:14:38;;;;;;;;;;;;;;;;;;4971528;28;19937;-94
2022/01/14 08:17:04;;;;;;;;;;;;;;;;;;4976201;28;19954;-95
2022/01/14 08:19:33;;;;;;;;;;;;;;;;;;4985468;28;19950;-95
2022/01/14 08:21:59;;;;;;;;;;;;;;;;;;4987748;28;19926;-96
2022/01/14 08:24:25;;;;;;;;;;;;;;;;;;4985740;28;19973;-95
2022/01/14 08:26:52;;;;;;;;;;;;;;;;;;4983397;28;19927;-95
2022/01/14 08:29:18;;;;;;;;;;;;;;;;;;4982437;28;19930;-94
2022/01/14 08:31:44;;;;;;;;;;;;;;;;;;4971107;28;19949;-95
2022/01/14 08:34:10;;;;;;;;;;;;;;;;;;4976692;28;19926;-95
2022/01/14 08:36:37;;;;;;;;;;;;;;;;;;4975426;28;19926;-96
2022/01/14 08:39:04;;;;;;;;;;;;;;;;;;4980752;28;19926;-96
2022/01/14 08:41:30;;;;;;;;;;;;;;;;;;4980788;28;19960;-96
2022/01/14 08:43:57;;;;;;;;;;;;;;;;;;4969902;28;20209;-96
2022/01/14 08:46:31;;;;;;;;;;;;;;;;;;4982381;28;19926;-96
2022/01/14 08:49:00;;;;;;;;;;;;;;;;;;4977715;29;19957;-96
2022/01/14 08:51:29;;;;;;;;;;;;;;;;;;4958037;29;19927;-96
2022/01/14 08:54:04;;;;;;;;;;;;;;;;;;4963562;29;19914;-96
2022/01/14 08:56:34;;;;;;;;;;;;;;;;;;4961975;29;19938;-96
2022/01/14 08:59:05;;;;;;;;;;;;;;;;;;4978101;29;19918;-96
2022/01/14 09:01:36;;;;;;;;;;;;;;;;;;4977215;29;19965;-96
2022/01/14 09:04:02;;;;;;;;;;;;;;;;;;4976021;29;19926;-95
2022/01/14 09:09:09;;;;;;;;;;;;;;;;;;4971810;29;20005;-96
2022/01/14 09:11:36;;;;;;;;;;;;;;;;;;4966835;28;20023;-96
2022/01/14 09:14:03;;;;;;;;;;;;;;;;;;4955993;29;19927;-96
2022/01/14 09:16:30;;;;;;;;;;;;;;;;;;4953371;29;19933;-96
2022/01/14 09:18:59;;;;;;;;;;;;;;;;;;4967645;29;20725;-96
2022/01/14 09:21:25;;;;;;;;;;;;;;;;;;4966893;29;19977;-96
2022/01/14 09:23:54;;;;;;;;;;;;;;;;;;4951978;29;19927;-96
2022/01/14 09:26:20;;;;;;;;;;;;;;;;;;4950713;29;19927;-96
2022/01/14 09:28:48;;;;;;;;;;;;;;;;;;4959353;29;19925;-96
2022/01/14 09:31:14;;;;;;;;;;;;;;;;;;4974024;28;19933;-96
2022/01/14 09:33:41;;;;;;;;;;;;;;;;;;4956744;29;20006;-96
2022/01/14 09:36:07;;;;;;;;;;;;;;;;;;4952229;29;19958;-95
2022/01/14 09:38:34;;;;;;;;;;;;;;;;;;4962709;29;19926;-96
2022/01/14 09:41:00;;;;;;;;;;;;;;;;;;4958434;29;19931;-94
2022/01/14 09:43:26;;;;;;;;;;;;;;;;;;4956651;29;19975;-93
2022/01/14 09:45:53;;;;;;;;;;;;;;;;;;4957810;29;19927;-93
2022/01/14 09:48:19;;;;;;;;;;;;;;;;;;4954415;29;19954;-92
2022/01/14 09:50:45;;;;;;;;;;;;;;;;;;4960017;29;19982;-92
2022/01/14 09:53:11;;;;;;;;;;;;;;;;;;4977228;28;19953;-93
2022/01/14 09:55:37;;;;;;;;;;;;;;;;;;4964885;29;19926;-93
2022/01/14 09:58:04;;;;;;;;;;;;;;;;;;4976555;28;19926;-95
2022/01/14 10:00:30;;;;;;;;;;;;;;;;;;4984130;28;19950;-94
2022/01/14 10:02:56;;;;;;;;;;;;;;;;;;4983377;28;19949;-94
2022/01/14 10:05:23;;;;;;;;;;;;;;;;;;4978706;28;19926;-96
2022/01/14 10:07:49;;;;;;;;;;;;;;;;;;4977250;28;20473;-96
2022/01/14 10:10:15;;;;;;;;;;;;;;;;;;4981448;28;19926;-96
2022/01/14 10:12:41;;;;;;;;;;;;;;;;;;4981644;28;19933;-95
2022/01/14 10:15:10;;;;;;;;;;;;;;;;;;4982700;28;19957;-96
2022/01/14 10:17:37;;;;;;;;;;;;;;;;;;4984834;28;19965;-96
2022/01/14 10:20:03;;;;;;;;;;;;;;;;;;4986517;28;19926;-94
2022/01/14 10:22:30;;;;;;;;;;;;;;;;;;4984570;28;19936;-96
2022/01/14 10:24:56;;;;;;;;;;;;;;;;;;4984035;28;19949;-96
2022/01/14 10:27:23;;;;;;;;;;;;;;;;;;4983559;28;19926;-96
2022/01/14 10:29:49;;;;;;;;;;;;;;;;;;4986251;28;19937;-96
2022/01/14 10:32:19;;;;;;;;;;;;;;;;;;4988440;28;19997;-96
2022/01/14 10:34:48;;;;;;;;;;;;;;;;;;4990625;28;19993;-96
2022/01/14 10:37:20;;;;;;;;;;;;;;;;;;4982990;28;19933;-96
2022/01/14 10:39:47;;;;;;;;;;;;;;;;;;4989670;28;20642;-96
2022/01/14 10:42:13;;;;;;;;;;;;;;;;;;4986656;28;19937;-96
2022/01/14 10:44:42;;;;;;;;;;;;;;;;;;4987387;28;19934;-96
2022/01/14 10:47:08;;;;;;;;;;;;;;;;;;4983616;28;19926;-96
2022/01/14 10:49:35;;;;;;;;;;;;;;;;;;4991081;28;20435;-96
2022/01/14 10:52:01;;;;;;;;;;;;;;;;;;4988728;28;19926;-96
2022/01/14 10:54:28;;;;;;;;;;;;;;;;;;4989644;28;19920;-96
2022/01/14 10:56:54;;;;;;;;;;;;;;;;;;4992293;28;19981;-96
2022/01/14 10:59:20;;;;;;;;;;;;;;;;;;4993888;28;19985;-96
2022/01/14 11:01:48;;;;;;;;;;;;;;;;;;4984948;28;19941;-93
2022/01/14 11:04:15;;;;;;;;;;;;;;;;;;5016372;23;19953;-96
2022/01/14 11:15:13;;;;;;;;;;;;;;;;;;5017312;28;19929;-96
2022/01/14 11:17:40;;;;;;;;;;;;;;;;;;5010729;28;19930;-96
2022/01/14 11:20:06;;;;;;;;;;;;;;;;;;5013351;28;19930;-94
2022/01/14 11:25:17;;;;;;;;;;;;;;;;;;5006742;28;20150;-96
2022/01/14 11:27:43;;;;;;;;;;;;;;;;;;5011540;28;19910;-96
2022/01/14 11:30:10;;;;;;;;;;;;;;;;;;5006091;28;19925;-96
2022/01/14 11:32:45;;;;;;;;;;;;;;;;;;5009784;28;19922;-96
2022/01/14 11:37:51;;;;;;;;;;;;;;;;;;5009428;28;19933;-95
2022/01/14 11:40:18;;;;;;;;;;;;;;;;;;5013146;28;19933;-96
2022/01/14 11:45:21;;;;;;;;;;;;;;;;;;5316138;23;19919;-96
2022/01/14 11:47:48;;;;;;;;;;;;;;;;;;5039714;28;19968;-95
2022/01/14 11:50:21;;;;;;;;;;;;;;;;;;5031131;28;19925;-96
2022/01/14 12:00:54;;;;;;;;;;;;;;;;;;5069177;28;19925;-96
2022/01/14 12:03:36;;;;;;;;;;;;;;;;;;5072504;28;19925;-97
2022/01/14 12:06:15;;;;;;;;;;;;;;;;;;5094960;23;19909;-96
2022/01/14 12:08:44;;;;;;;;;;;;;;;;;;5337717;23;19925;-96
2022/01/14 12:11:10;;;;;;;;;;;;;;;;;;5008620;28;19926;-96
2022/01/14 12:13:49;;;;;;;;;;;;;;;;;;5008483;28;19926;-96
2022/01/14 12:16:18;;;;;;;;;;;;;;;;;;5004477;28;19926;-95
2022/01/14 12:18:44;;;;;;;;;;;;;;;;;;4990267;28;19933;-96
2022/01/14 12:21:11;;;;;;;;;;;;;;;;;;4993580;28;20276;-96
2022/01/14 12:23:37;;;;;;;;;;;;;;;;;;4998052;28;19925;-96
2022/01/14 12:28:44;;;;;;;;;;;;;;;;;;5006966;28;19926;-94
2022/01/14 12:31:11;;;;;;;;;;;;;;;;;;5006587;28;20480;-96
2022/01/14 12:33:37;;;;;;;;;;;;;;;;;;5006969;28;19933;-94
2022/01/14 12:36:03;;;;;;;;;;;;;;;;;;5006583;28;19926;-95
2022/01/14 12:38:31;;;;;;;;;;;;;;;;;;5006990;28;19932;-96
2022/01/14 12:40:57;;;;;;;;;;;;;;;;;;5005433;28;19957;-95
2022/01/14 12:43:23;;;;;;;;;;;;;;;;;;5005044;28;19926;-96
2022/01/14 12:46:01;;;;;;;;;;;;;;;;;;5005951;28;19933;-95
2022/01/14 12:48:37;;;;;;;;;;;;;;;;;;5005511;28;19957;-96
2022/01/14 12:51:03;;;;;;;;;;;;;;;;;;5008542;28;19932;-95
2022/01/14 12:53:30;;;;;;;;;;;;;;;;;;5003953;28;19955;-96
2022/01/14 12:56:06;;;;;;;;;;;;;;;;;;5002864;28;19933;-96
2022/01/14 12:58:33;;;;;;;;;;;;;;;;;;5006341;28;19940;-96
2022/01/14 13:13:54;;;;;;;;;;;;;;;;;;5577420;23;20473;-96
2022/01/14 13:16:20;;;;;;;;;;;;;;;;;;5026937;28;19925;-96
2022/01/14 13:21:23;;;;;;;;;;;;;;;;;;6041373;23;20216;-96
2022/01/14 13:23:50;;;;;;;;;;;;;;;;;;5003385;28;19929;-95
2022/01/14 13:26:16;;;;;;;;;;;;;;;;;;5004243;28;19930;-95
2022/01/14 13:28:42;;;;;;;;;;;;;;;;;;5004120;28;19926;-95
2022/01/14 13:31:09;;;;;;;;;;;;;;;;;;5001651;28;19930;-95
2022/01/14 13:33:37;;;;;;;;;;;;;;;;;;5002405;28;19925;-95
2022/01/14 13:36:03;;;;;;;;;;;;;;;;;;5000892;28;19925;-96
2022/01/14 13:38:29;;;;;;;;;;;;;;;;;;5000539;28;19930;-95
2022/01/14 13:40:57;;;;;;;;;;;;;;;;;;4999321;28;19933;-96
2022/01/14 13:43:23;;;;;;;;;;;;;;;;;;4997242;28;19953;-95
2022/01/14 13:45:49;;;;;;;;;;;;;;;;;;4996498;28;19930;-95
2022/01/14 13:48:21;;;;;;;;;;;;;;;;;;4995044;28;19925;-95
2022/01/14 13:50:47;;;;;;;;;;;;;;;;;;4999297;28;19985;-94
2022/01/14 13:53:14;;;;;;;;;;;;;;;;;;5001053;28;19949;-95
2022/01/14 13:55:40;;;;;;;;;;;;;;;;;;5000430;28;19925;-96
2022/01/14 13:58:06;;;;;;;;;;;;;;;;;;5004496;28;19930;-95
2022/01/14 14:00:33;;;;;;;;;;;;;;;;;;5004250;28;19998;-94
2022/01/14 14:02:59;;;;;;;;;;;;;;;;;;5003763;28;19985;-96
2022/01/14 14:05:26;;;;;;;;;;;;;;;;;;5004383;28;19925;-94
2022/01/14 14:07:53;;;;;;;;;;;;;;;;;;5004799;28;19930;-95
2022/01/14 14:10:31;;;;;;;;;;;;;;;;;;5004507;28;19994;-94
2022/01/14 14:13:09;;;;;;;;;;;;;;;;;;5003292;28;19940;-96
2022/01/14 14:15:44;;;;;;;;;;;;;;;;;;5003592;28;19972;-95
2022/01/14 14:18:10;;;;;;;;;;;;;;;;;;5003847;28;19926;-95
2022/01/14 14:20:37;;;;;;;;;;;;;;;;;;5004125;28;20369;-96
2022/01/14 14:23:03;;;;;;;;;;;;;;;;;;5006016;28;19953;-96
2022/01/14 14:25:32;;;;;;;;;;;;;;;;;;5001014;28;19925;-95
2022/01/14 14:27:58;;;;;;;;;;;;;;;;;;5003254;28;19925;-95
2022/01/14 14:30:26;;;;;;;;;;;;;;;;;;5003977;28;20445;-95
2022/01/14 14:32:52;;;;;;;;;;;;;;;;;;5001384;28;19968;-95
2022/01/14 14:35:19;;;;;;;;;;;;;;;;;;5003789;28;19926;-95
2022/01/14 14:37:47;;;;;;;;;;;;;;;;;;5000331;28;19930;-95
2022/01/14 14:40:16;;;;;;;;;;;;;;;;;;4998441;28;19925;-95
2022/01/14 14:42:42;;;;;;;;;;;;;;;;;;4999577;28;19926;-96
2022/01/14 14:45:09;;;;;;;;;;;;;;;;;;5001022;28;19933;-96
2022/01/14 14:47:35;;;;;;;;;;;;;;;;;;5001535;28;20014;-96
2022/01/14 14:50:01;;;;;;;;;;;;;;;;;;5001692;28;19933;-96
2022/01/14 14:52:27;;;;;;;;;;;;;;;;;;5000947;28;19932;-96
2022/01/14 14:54:54;;;;;;;;;;;;;;;;;;5001462;28;19926;-96
2022/01/14 14:57:21;;;;;;;;;;;;;;;;;;5004682;28;19929;-96
2022/01/14 14:59:47;;;;;;;;;;;;;;;;;;4993928;28;19997;-95
2022/01/14 15:02:14;;;;;;;;;;;;;;;;;;4982435;28;19958;-96
2022/01/14 15:04:41;;;;;;;;;;;;;;;;;;4991008;28;19926;-96
2022/01/14 15:07:07;;;;;;;;;;;;;;;;;;5002602;28;19926;-95
2022/01/14 15:09:33;;;;;;;;;;;;;;;;;;5003092;28;19973;-96
2022/01/14 15:11:59;;;;;;;;;;;;;;;;;;5007118;28;19930;-95
2022/01/14 15:14:27;;;;;;;;;;;;;;;;;;5007109;28;19937;-95
2022/01/14 15:17:31;;;;;;;;;;;;;;;;;;5007206;28;19989;-95
2022/01/14 15:19:56;;;;;;;;;;;;;;;;;;5007030;28;19926;-95
2022/01/14 15:22:22;;;;;;;;;;;;;;;;;;5007098;28;19976;-96
2022/01/14 15:24:48;;;;;;;;;;;;;;;;;;5007998;28;19929;-96
2022/01/14 15:27:15;;;;;;;;;;;;;;;;;;5006320;28;19932;-96
2022/01/14 15:29:42;;;;;;;;;;;;;;;;;;5008752;28;20282;-96
2022/01/14 15:32:08;;;;;;;;;;;;;;;;;;5007592;28;19932;-95
2022/01/14 15:34:36;;;;;;;;;;;;;;;;;;5002414;28;20008;-96
2022/01/14 15:37:04;;;;;;;;;;;;;;;;;;4988795;28;19933;-96
2022/01/14 15:39:30;;;;;;;;;;;;;;;;;;4998390;28;19926;-96
2022/01/14 15:41:57;;;;;;;;;;;;;;;;;;5006897;28;19926;-96
2022/01/14 15:44:23;;;;;;;;;;;;;;;;;;5005286;28;19934;-96
2022/01/14 15:46:49;;;;;;;;;;;;;;;;;;5008586;28;19934;-96
2022/01/14 15:49:16;;;;;;;;;;;;;;;;;;5006463;28;19933;-95
2022/01/14 15:51:42;;;;;;;;;;;;;;;;;;5005144;28;19980;-95
2022/01/14 15:54:08;;;;;;;;;;;;;;;;;;5004955;28;19934;-96
2022/01/14 15:56:35;;;;;;;;;;;;;;;;;;5005689;28;19996;-94
2022/01/14 15:59:01;;;;;;;;;;;;;;;;;;5005250;28;19926;-95
2022/01/14 16:01:27;;;;;;;;;;;;;;;;;;5006850;28;19933;-96
2022/01/14 16:03:53;;;;;;;;;;;;;;;;;;5007565;28;19949;-96
2022/01/14 16:06:20;;;;;;;;;;;;;;;;;;5007067;28;19933;-96
2022/01/14 16:08:46;;;;;;;;;;;;;;;;;;5009790;28;19926;-96
2022/01/14 16:11:12;;;;;;;;;;;;;;;;;;4995812;28;19926;-95
2022/01/14 16:13:41;;;;;;;;;;;;;;;;;;5004910;28;20376;-95
2022/01/14 16:16:07;;;;;;;;;;;;;;;;;;5007779;28;19933;-96
2022/01/14 16:18:33;;;;;;;;;;;;;;;;;;5001756;28;19926;-96
2022/01/14 16:21:00;;;;;;;;;;;;;;;;;;4998090;28;20421;-96
2022/01/14 16:23:26;;;;;;;;;;;;;;;;;;4998782;28;19926;-96
2022/01/14 16:25:52;;;;;;;;;;;;;;;;;;5006238;28;19926;-96
2022/01/14 16:28:19;;;;;;;;;;;;;;;;;;4997132;28;19972;-96
2022/01/14 16:30:45;;;;;;;;;;;;;;;;;;5004632;28;19929;-96
2022/01/14 16:33:13;;;;;;;;;;;;;;;;;;5009982;28;19989;-96
2022/01/14 16:35:39;;;;;;;;;;;;;;;;;;4996731;28;19950;-96
2022/01/14 16:38:06;;;;;;;;;;;;;;;;;;4994955;28;19926;-96
2022/01/14 16:40:33;;;;;;;;;;;;;;;;;;5093616;23;19997;-96
2022/01/14 16:42:59;;;;;;;;;;;;;;;;;;5011947;28;19926;-96
2022/01/14 16:45:25;;;;;;;;;;;;;;;;;;5004861;28;19933;-96
2022/01/14 16:47:54;;;;;;;;;;;;;;;;;;5010807;28;19933;-96
2022/01/14 16:50:22;;;;;;;;;;;;;;;;;;5006366;28;19972;-96
2022/01/14 16:52:57;;;;;;;;;;;;;;;;;;5001464;28;19926;-96
2022/01/14 16:55:24;;;;;;;;;;;;;;;;;;5007557;28;19926;-96
2022/01/14 16:57:50;;;;;;;;;;;;;;;;;;5013274;28;19952;-96
2022/01/14 17:00:16;;;;;;;;;;;;;;;;;;5001853;28;19927;-96
2022/01/14 17:02:43;;;;;;;;;;;;;;;;;;4998658;28;19926;-96
2022/01/14 17:05:09;;;;;;;;;;;;;;;;;;4997696;28;19926;-96
2022/01/14 17:07:35;;;;;;;;;;;;;;;;;;5004447;28;19926;-96
2022/01/14 17:10:04;;;;;;;;;;;;;;;;;;5000136;28;19982;-96
2022/01/14 17:12:31;;;;;;;;;;;;;;;;;;4991099;28;19926;-96
2022/01/14 17:15:01;;;;;;;;;;;;;;;;;;5006067;28;20020;-96
2022/01/14 17:17:28;;;;;;;;;;;;;;;;;;5010305;28;20254;-96
2022/01/14 17:19:54;;;;;;;;;;;;;;;;;;5000856;28;19932;-96
2022/01/14 17:22:21;;;;;;;;;;;;;;;;;;5002194;28;19936;-96
2022/01/14 17:24:47;;;;;;;;;;;;;;;;;;5000110;28;19926;-96
2022/01/14 17:27:19;;;;;;;;;;;;;;;;;;4987876;28;19933;-96
2022/01/14 17:50:59;;;;;;;;;;;;;;;;;;5240407;22;23687021;-96
2022/01/14 17:53:25;;;;;;;;;;;;;;;;;;6245113;23;19920;-96
2022/01/14 17:55:57;;;;;;;;;;;;;;;;;;6246036;23;19920;-96
2022/01/14 18:01:03;;;;;;;;;;;;;;;;;;6246225;23;19904;-96
2022/01/14 18:03:30;;;;;;;;;;;;;;;;;;6239932;23;19931;-96
2022/01/14 18:05:57;;;;;;;;;;;;;;;;;;6239468;23;19920;-96
2022/01/14 18:14:18;;;;;;;;;;;;;;;;;;6248982;23;19927;-96
2022/01/14 18:53:36;;;;;;;;;;;;;;;;;;6215394;22;19915;-96
2022/01/14 19:01:21;;;;;;;;;;;;;;;;;;6230334;22;20204;-96
2022/01/14 19:03:56;;;;;;;;;;;;;;;;;;6269596;22;19958;-96
2022/01/14 19:22:18;;;;;;;;;;;;;;;;;;6266776;22;19983;-96
2022/01/14 19:24:46;;;;;;;;;;;;;;;;;;6244198;23;19928;-96
2022/01/14 19:42:51;;;;;;;;;;;;;;;;;;6258010;22;19971;-96
2022/01/14 19:45:18;;;;;;;;;;;;;;;;;;6265579;23;19920;-95
2022/01/14 20:01:03;;;;;;;;;;;;;;;;;;6208217;22;20610;-96
2022/01/14 20:06:20;;;;;;;;;;;;;;;;;;6194963;22;19940;-96
2022/01/14 20:08:46;;;;;;;;;;;;;;;;;;6241315;23;19920;-96
2022/01/14 20:22:15;;;;;;;;;;;;;;;;;;6263695;22;19949;-95
2022/01/14 20:47:58;;;;;;;;;;;;;;;;;;6255247;23;19920;-95
2022/01/14 20:50:25;;;;;;;;;;;;;;;;;;6255547;23;19927;-93
2022/01/14 20:52:51;;;;;;;;;;;;;;;;;;6255831;23;19942;-94
2022/01/14 21:10:40;;;;;;;;;;;;;;;;;;6244971;22;19927;-96
2022/01/14 21:13:06;;;;;;;;;;;;;;;;;;6264303;23;19954;-96
2022/01/14 21:15:35;;;;;;;;;;;;;;;;;;6267444;22;19919;-96
2022/01/14 21:18:04;;;;;;;;;;;;;;;;;;6260017;22;19943;-95
2022/01/14 21:20:34;;;;;;;;;;;;;;;;;;6261689;23;19920;-96
2022/01/14 21:23:02;;;;;;;;;;;;;;;;;;6269909;23;19920;-96
2022/01/14 21:28:11;;;;;;;;;;;;;;;;;;6267478;22;19919;-96
2022/01/14 21:30:40;;;;;;;;;;;;;;;;;;6270184;23;19915;-96
2022/01/14 21:33:17;;;;;;;;;;;;;;;;;;6274070;22;19927;-96
2022/01/14 21:35:44;;;;;;;;;;;;;;;;;;6258552;23;19987;-96
2022/01/14 21:38:10;;;;;;;;;;;;;;;;;;6256361;23;19920;-94
2022/01/14 21:40:36;;;;;;;;;;;;;;;;;;6253864;23;20695;-95
2022/01/14 21:43:04;;;;;;;;;;;;;;;;;;6257993;23;19978;-94
2022/01/14 21:45:31;;;;;;;;;;;;;;;;;;6256994;23;19919;-96
2022/01/14 21:47:57;;;;;;;;;;;;;;;;;;6262239;23;19930;-94
2022/01/14 21:50:23;;;;;;;;;;;;;;;;;;6254904;23;19924;-96
2022/01/14 21:52:49;;;;;;;;;;;;;;;;;;6256663;23;19927;-96
2022/01/14 21:55:18;;;;;;;;;;;;;;;;;;6265053;23;19930;-96
2022/01/14 21:57:52;;;;;;;;;;;;;;;;;;6267575;22;19993;-96
2022/01/14 22:00:28;;;;;;;;;;;;;;;;;;6271405;23;19912;-96
2022/01/14 22:02:54;;;;;;;;;;;;;;;;;;6266627;23;19950;-96
2022/01/14 22:05:33;;;;;;;;;;;;;;;;;;6271516;22;19972;-96
2022/01/14 22:08:03;;;;;;;;;;;;;;;;;;6270939;23;19910;-96
2022/01/14 22:13:15;;;;;;;;;;;;;;;;;;6263735;23;19927;-96
2022/01/14 22:15:41;;;;;;;;;;;;;;;;;;6261073;22;19927;-96
2022/01/14 22:20:51;;;;;;;;;;;;;;;;;;6261619;22;19920;-96
2022/01/14 22:23:18;;;;;;;;;;;;;;;;;;6254339;23;19935;-96
2022/01/14 22:25:44;;;;;;;;;;;;;;;;;;6253452;23;19919;-94
2022/01/14 22:28:10;;;;;;;;;;;;;;;;;;6251416;23;19919;-94
2022/01/14 22:30:37;;;;;;;;;;;;;;;;;;6253065;23;19962;-94
2022/01/14 22:33:03;;;;;;;;;;;;;;;;;;6251852;23;19974;-96
2022/01/14 22:35:29;;;;;;;;;;;;;;;;;;6251727;23;19927;-95
2022/01/14 22:37:56;;;;;;;;;;;;;;;;;;6253702;23;19919;-96
2022/01/14 22:40:22;;;;;;;;;;;;;;;;;;6254512;23;19920;-96
2022/01/14 22:45:52;;;;;;;;;;;;;;;;;;6261226;23;19939;-96
2022/01/14 22:48:22;;;;;;;;;;;;;;;;;;6272212;22;19914;-96
2022/01/14 22:51:09;;;;;;;;;;;;;;;;;;6260982;22;19920;-96
2022/01/14 22:53:35;;;;;;;;;;;;;;;;;;6251436;23;19926;-96
2022/01/14 22:56:02;;;;;;;;;;;;;;;;;;6254328;23;19920;-96
2022/01/14 22:58:29;;;;;;;;;;;;;;;;;;6258113;23;19964;-96
2022/01/14 23:00:55;;;;;;;;;;;;;;;;;;6258031;23;19923;-95
2022/01/14 23:03:21;;;;;;;;;;;;;;;;;;6261235;23;19926;-95
2022/01/14 23:05:47;;;;;;;;;;;;;;;;;;6259537;23;19934;-96
2022/01/14 23:08:14;;;;;;;;;;;;;;;;;;6262453;23;19919;-96
2022/01/14 23:10:40;;;;;;;;;;;;;;;;;;6287125;22;19926;-96
2022/01/14 23:13:09;;;;;;;;;;;;;;;;;;6295573;22;20137;-96
2022/01/14 23:18:24;;;;;;;;;;;;;;;;;;6302746;22;19930;-96
2022/01/14 23:20:52;;;;;;;;;;;;;;;;;;6298834;22;19934;-96
2022/01/14 23:23:19;;;;;;;;;;;;;;;;;;6292469;22;19927;-96
2022/01/14 23:25:45;;;;;;;;;;;;;;;;;;6261125;23;19967;-96
2022/01/14 23:28:12;;;;;;;;;;;;;;;;;;6258520;23;20269;-95
2022/01/14 23:30:38;;;;;;;;;;;;;;;;;;6239659;23;19920;-96
2022/01/14 23:33:04;;;;;;;;;;;;;;;;;;6263264;23;19938;-96
2022/01/14 23:35:31;;;;;;;;;;;;;;;;;;6258408;23;19926;-96
2022/01/14 23:37:57;;;;;;;;;;;;;;;;;;6260719;23;19919;-96
2022/01/14 23:40:23;;;;;;;;;;;;;;;;;;6259452;23;19926;-96
2022/01/14 23:42:52;;;;;;;;;;;;;;;;;;6259674;23;19926;-95
2022/01/14 23:45:37;;;;;;;;;;;;;;;;;;6258809;23;20297;-94
2022/01/14 23:48:03;;;;;;;;;;;;;;;;;;6256338;23;19926;-95
2022/01/14 23:50:30;;;;;;;;;;;;;;;;;;6258438;23;19943;-96
2022/01/14 23:52:57;;;;;;;;;;;;;;;;;;6259550;23;19919;-96
2022/01/14 23:55:25;;;;;;;;;;;;;;;;;;6259767;23;19926;-96
2022/01/14 23:57:51;;;;;;;;;;;;;;;;;;6264944;23;19930;-96
